Nearby METAR Reports. Back to Deeside Weather.

 

EGNR - Hawarden (aut), United Kingdom
Distance from station: NNE 5mi, 8km
Updated: Sun, 09-Dec-2018 6:50pm GMT
NOT Current
Few Clouds
Few Clouds
 Wind from W
Wind: W 5 mph , 7 km/h
Temperature: 46°F , 8°C
Wind Chill: 44°F , 7°C
Dew Point: 39°F , 4°C
Humidity: 76%
Barometer: 30.09 inHg , 1019 hPa
Clouds: Few Clouds
Visibility: 6 miles , 10 km
Cloud details: Few Clouds 1800 ft
2018/12/09 18:50 EGNR 091850Z 27004KT 230V310 9999 FEW018 08/04 Q1019
EGGP - Liverpool Airpor, United Kingdom
Distance from station: NNE 17mi, 27km
Updated: Sun, 09-Dec-2018 10:20pm GMT
Nearby showers, Partly cloudy
Nearby showers, Partly cloudy
 Wind from WNW
Wind: WNW 7 mph , 11 km/h
Temperature: 45°F , 7°C
Wind Chill: 41°F , 5°C
Dew Point: 41°F , 5°C
Humidity: 87%
Barometer: 30.15 inHg , 1021 hPa
Summary: Nearby Showers
Clouds: Partly Cloudy
Visibility: 6 miles , 10 km
Cloud details: Few Clouds 1700 ft
Partly Cloudy 2400 ft
2018/12/09 22:20 EGGP 092220Z 30006KT 270V330 9999 VCSH FEW017 SCT024 07/05 Q1021
 
EGOS - Shawbury Raf, United Kingdom
Distance from station: SE 25mi, 41km
Updated: Sun, 09-Dec-2018 9:50pm GMT
Few Clouds
Few Clouds
 Wind from W
Wind: W 8 mph , 13 km/h
Temperature: 41°F , 5°C
Wind Chill: 36°F , 2°C
Dew Point: 39°F , 4°C
Humidity: 93%
Barometer: 30.15 inHg , 1021 hPa
Clouds: Few Clouds
Visibility: 6 miles , 10 km
Cloud details: Few Clouds 5000 ft
2018/12/09 21:50 EGOS 092150Z AUTO 26007KT 9999 FEW050/// 05/04 Q1021
EGCC - Manchester Intl, United Kingdom
Distance from station: ENE 36mi, 58km
Updated: Sun, 09-Dec-2018 10:20pm GMT
Overcast
Overcast
 Wind from WSW
Wind: WSW 5 mph , 7 km/h
Temperature: 43°F , 6°C
Wind Chill: 40°F , 4°C
Dew Point: 41°F , 5°C
Humidity: 93%
Barometer: 30.15 inHg , 1021 hPa
Clouds: Overcast
Visibility: 6 miles , 10 km
Cloud details: Mostly Cloudy 2300 ft
Overcast 4800 ft
2018/12/09 22:20 EGCC 092220Z AUTO 24004KT 9999 BKN023 OVC048 06/05 Q1021

Metar display script from Saratoga-Weather.org